Flight Track Log - Related Links

Times and Time Zones

All times are in EDT time to prevent confusion due to time zone crossing. See the DAL6197 flight status page for this flight to view local times or setup timezone preferences in your user account.

Time Position Orientation Groundspeed Altitude Reporting Facility
EDT Latitude Longitude Course Direction KTS MPH feet Rate Location/Type
Sun 07:18:54 PM 40.8000 -73.9000 201° Southwest 163 188 2,700  Level New York TRACON
Sun 07:19:54 PM 40.8000 -73.9500 270° West 224 258 4,600 2,316 Climbing New York TRACON
Sun 07:20:48 PM 40.7333 -74.0000 210° Southwest 263 303 7,100 3,263 Climbing New York TRACON
Sun 07:21:48 PM 40.6833 -74.0500 217° Southwest 268 308 10,800 2,124 Climbing New York TRACON
Sun 07:24:00 PM 40.2433 -74.1201 201° Southwest  Level FlightAware Approximate
Sun 07:24:17 PM 40.5000 -74.1061 193° South 320 368 14,500  Level New York Center
Sun 07:26:05 PM 40.3444 -74.1517 193° South 320 368 18,800 2,393 Climbing Washington Center
Sun 07:27:05 PM 40.2744 -74.2183 216° Southwest 306 352 21,200 1,983 Climbing Washington Center
Sun 07:28:06 PM 40.2083 -74.2794 215° Southwest 306 352 22,800 1,361 Climbing Washington Center
Sun 07:29:04 PM 40.1342 -74.3486 215° Southwest 311 358 23,900 615 Climbing Washington Center
Sun 07:30:03 PM 40.0578 -74.4178 215° Southwest 322 371 24,000 400 Climbing Washington Center
Sun 07:31:04 PM 39.9792 -74.4894 215° Southwest 342 394 24,700 1,082 Climbing Washington Center
Sun 07:32:05 PM 39.9008 -74.5639 216° Southwest 347 399 26,200 1,377 Climbing Washington Center
Sun 07:33:06 PM 39.8139 -74.6433 215° Southwest 347 399 27,500 1,210 Climbing Washington Center
Sun 07:34:04 PM 39.7333 -74.7172 215° Southwest 352 405 28,600 1,059 Climbing Washington Center
Sun 07:35:05 PM 39.6506 -74.7939 216° Southwest 357 411 29,600 984 Climbing Washington Center
Sun 07:36:06 PM 39.5675 -74.8675 214° Southwest 362 417 30,600 1,059 Climbing Washington Center
Sun 07:37:04 PM 39.4867 -74.9408 215° Southwest 362 417 31,700 1,059 Climbing Washington Center
Sun 07:38:05 PM 39.4081 -75.0222 219° Southwest 362 417 32,700 1,041 Climbing Washington Center
Sun 07:39:05 PM 39.3439 -75.1192 229° Southwest 362 417 33,800 1,200 Climbing Washington Center
Sun 07:40:05 PM 39.2753 -75.2108 226° Southwest 362 417 35,100 1,091 Climbing Washington Center
Sun 07:41:06 PM 39.1922 -75.2728 210° Southwest 356 410 36,000 744 Climbing Washington Center
Sun 07:42:06 PM 39.1089 -75.3375 211° Southwest 356 410 36,600 559 Climbing Washington Center
Sun 07:43:04 PM 39.0236 -75.3992 209° Southwest 356 410 37,100 504 Climbing Washington Center
Sun 07:44:05 PM 38.9342 -75.4608 208° Southwest 356 410 37,600 397 Climbing Washington Center
Sun 07:45:05 PM 38.8467 -75.5303 212° Southwest 361 415 37,900 200 Climbing Washington Center
Sun 07:46:05 PM 38.7528 -75.5917 207° Southwest 374 430 38,000 50 Climbing Washington Center
Sun 07:47:06 PM 38.6589 -75.6581 209° Southwest 381 438 38,000  Level Washington Center
Sun 07:48:04 PM 38.5672 -75.7297 211° Southwest 386 444 38,000  Level Washington Center
Sun 07:49:05 PM 38.4733 -75.7906 207° Southwest 386 444 38,000  Level Washington Center
Sun 07:50:06 PM 38.3772 -75.8539 207° Southwest 386 444 38,000  Level Washington Center
Sun 07:51:04 PM 38.2853 -75.9250 211° Southwest 392 451 38,000  Level Washington Center
Sun 07:52:05 PM 38.1914 -75.9881 208° Southwest 392 451 38,000  Level Washington Center
Sun 07:53:06 PM 38.0950 -76.0561 209° Southwest 392 451 38,000  Level Washington Center
Sun 07:54:05 PM 37.9989 -76.1242 209° Southwest 397 457 38,000  Level Washington Center
Sun 07:55:06 PM 37.9047 -76.1892 209° Southwest 397 457 38,000  Level Washington Center
Sun 07:56:04 PM 37.8125 -76.2569 210° Southwest 397 457 38,000  Level Washington Center
Sun 07:57:04 PM 37.7183 -76.3217 209° Southwest 397 457 38,000  Level Washington Center
Sun 07:58:05 PM 37.6219 -76.3864 208° Southwest 397 457 38,000  Level Washington Center
Sun 07:59:05 PM 37.5278 -76.4533 209° Southwest 397 457 38,000  Level Washington Center
Sun 08:00:06 PM 37.4417 -76.5125 209° Southwest 397 457 38,000  Level Washington Center
Sun 08:01:06 PM 37.3347 -76.5844 208° Southwest 397 457 38,000  Level Washington Center
Sun 08:02:04 PM 37.2383 -76.6536 210° Southwest 397 457 38,000  Level Washington Center
Sun 08:03:05 PM 37.1397 -76.7175 207° Southwest 397 457 38,000  Level Washington Center
Sun 08:04:05 PM 37.0450 -76.7861 210° Southwest 397 457 38,000  Level Washington Center
Sun 08:05:06 PM 36.9506 -76.8497 208° Southwest 397 457 38,000  Level Washington Center
Sun 08:06:06 PM 36.8539 -76.9156 209° Southwest 397 457 38,000  Level Washington Center
Sun 08:07:05 PM 36.7572 -76.9814 209° Southwest 397 457 38,000  Level Washington Center
Sun 08:08:05 PM 36.6667 -77.0550 213° Southwest 397 457 38,000  Level Washington Center
Sun 08:09:05 PM 36.5822 -77.1336 217° Southwest 397 457 38,000  Level Washington Center
Sun 08:10:06 PM 36.4997 -77.2147 218° Southwest 391 450 38,000  Level Washington Center
Sun 08:11:06 PM 36.4217 -77.2878 217° Southwest 391 450 38,000  Level Washington Center
Sun 08:12:04 PM 36.3369 -77.3686 218° Southwest 391 450 38,000  Level Washington Center
Sun 08:13:04 PM 36.2522 -77.4492 217° Southwest 391 450 38,000  Level Washington Center
Sun 08:14:05 PM 36.1739 -77.5244 218° Southwest 378 435 38,000  Level Washington Center
Sun 08:15:05 PM 36.0911 -77.6019 217° Southwest 378 435 38,000  Level Washington Center
Sun 08:16:06 PM 36.0064 -77.6769 216° Southwest 373 429 38,000  Level Washington Center
Sun 08:17:04 PM 35.9217 -77.7517 216° Southwest 373 429 38,000  Level Washington Center
Sun 08:18:04 PM 35.8328 -77.8183 211° Southwest 373 429 38,000  Level Washington Center
Sun 08:19:04 PM 35.7461 -77.8878 213° Southwest 378 435 38,000  Level Washington Center
Sun 08:20:05 PM 35.6592 -77.9567 213° Southwest 378 435 38,000  Level Washington Center
Sun 08:21:06 PM 35.5744 -78.0206 212° Southwest 378 435 38,000  Level Washington Center
Sun 08:22:04 PM 35.4853 -78.0867 211° Southwest 378 435 38,000  Level Washington Center
Sun 08:23:04 PM 35.3983 -78.1553 213° Southwest 378 435 38,000 -99 Level Washington Center
Sun 08:24:05 PM 35.3133 -78.2214 212° Southwest 378 435 37,800 -694 Descending Washington Center
Sun 08:25:05 PM 35.2264 -78.2872 212° Southwest 378 435 36,600 -1,240 Descending Washington Center
Sun 08:26:06 PM 35.1436 -78.3531 213° Southwest 378 435 35,300 -1,210 Descending Washington Center
Sun 08:27:04 PM 35.0628 -78.4164 213° Southwest 372 428 34,200 -1,150 Descending Washington Center
Sun 08:28:06 PM 34.9800 -78.4792 212° Southwest 361 415 33,000 -1,231 Descending Washington Center
Sun 08:29:40 PM 34.8494 -78.5772 212° Southwest 345 397 31,000 -1,247 Descending Jacksonville Center
Sun 08:30:40 PM 34.7642 -78.6447 213° Southwest 352 405 29,800 -1,200 Descending Jacksonville Center
Sun 08:31:40 PM 34.6744 -78.7094 211° Southwest 366 421 28,600 -900 Descending Jacksonville Center
Sun 08:32:40 PM 34.5850 -78.7794 213° Southwest 379 436 28,000 -300 Descending Jacksonville Center
Sun 08:33:40 PM 34.4833 -78.8625 214° Southwest 390 449 28,000  Level Jacksonville Center
Sun 08:34:40 PM 34.3897 -78.9372 213° Southwest 403 464 28,000  Level Jacksonville Center
Sun 08:35:40 PM 34.2961 -79.0044 211° Southwest 403 464 28,000 -550 Level Jacksonville Center
Sun 08:36:40 PM 34.1933 -79.0567 203° Southwest 403 464 26,900 -1,250 Descending Jacksonville Center
Sun 08:37:40 PM 34.0903 -79.1039 201° Southwest 403 464 25,500 -1,550 Descending Jacksonville Center
Sun 08:38:40 PM 33.9853 -79.1508 200° South 398 458 23,800 -1,700 Descending Jacksonville Center
Sun 08:39:40 PM 33.8886 -79.1950 201° Southwest 398 458 22,100 -1,750 Descending Jacksonville Center
Sun 08:40:40 PM 33.7939 -79.2389 201° Southwest 381 438 20,300 -1,850 Descending Jacksonville Center
Sun 08:41:40 PM 33.7122 -79.2972 211° Southwest 360 414 18,400 -1,750 Descending Jacksonville Center
Sun 08:42:40 PM 33.6386 -79.3503 211° Southwest 331 381 16,800 -1,550 Descending Jacksonville Center
Sun 08:43:40 PM 33.5669 -79.4056 213° Southwest 319 367 15,300 -1,600 Descending Jacksonville Center
Sun 08:44:40 PM 33.4914 -79.4606 211° Southwest 319 367 13,600 -1,650 Descending Jacksonville Center
Sun 08:45:40 PM 33.4156 -79.5183 212° Southwest 319 367 12,000 -1,350 Descending Jacksonville Center
Sun 08:46:40 PM 33.3419 -79.5733 212° Southwest 314 361 10,900 -1,250 Descending Jacksonville Center
Sun 08:47:40 PM 33.2850 -79.6325 221° Southwest 302 348 9,500 -1,550 Descending Jacksonville Center
Sun 08:48:40 PM 33.2344 -79.6917 224° Southwest 280 322 7,800 -1,600 Descending Jacksonville Center
Sun 08:49:40 PM 33.1858 -79.7528 226° Southwest 262 302 6,300 -1,500 Descending Jacksonville Center
Sun 08:50:40 PM 33.1392 -79.8067 224° Southwest 244 281 4,800 -1,500 Descending Jacksonville Center
Sun 08:51:40 PM 33.0925 -79.8603 224° Southwest 239 275 3,300 -1,200 Descending Jacksonville Center
Sun 08:52:40 PM 33.0478 -79.9139 225° Southwest 239 275 2,400 -800 Descending Jacksonville Center
Sun 08:53:40 PM 33.0092 -79.9597 225° Southwest 224 258 1,700 -700 Descending Jacksonville Center
Sun 08:55:00 PM 32.8995 -80.0399 209° Southwest  Level Estimated
Sun 09:02:00 PM 32.8986 -80.0405 348° North  Level Estimated
Sun 09:03:00 PM 32.8986 -80.0405 348° North  Level Estimated
Sun 09:04:00 PM 32.8986 -80.0405 348° North  Level Estimated
Sun 09:05:00 PM 32.8986 -80.0405 348° North  Level Estimated

Login

Don't have an account? Register now (free) for customized features, flight alerts, and more!